Royal, IA (51357)

4:40 AM CDT on August 30, 2015 (GMT -0500)
North of Peterson | | Change Station
CLOSE
Current Station
Personal Weather Station
Location: Peterson, IA
Elevation: 1414 ft
Nearby Weather Stations

Elev 1414 ft 42.99 °N, 95.35 °W | Updated 7 minutes ago

Overcast
Overcast
60.8 °F
Feels Like 60.8 °F
N
3.1
Wind Variable Wind from South

Today
High -- | Low -- °F
--% Chance of Precip.
Yesterday
High -- | Low -- °F
Precip. -- in
6:42 AM 7:59 PM
Waxing Gibbous, 99% visible
Pressure 30.03 in
Visibility 3.0 miles
Clouds Overcast 400 ft
Dew Point 60 °F
Humidity 99%
Rainfall 0.00 in
Snow Depth Not available.
UV 0 out of 12
Pollen 9.40 out of 12
Air Quality Not available.
Flu Activity Not available.
SPECI KSPW 300930Z AUTO 20007KT 3SM BR OVC004 17/15 A3003 RMK AO2 T01670150 $
Pressure 30.03 in
Visibility 3.0 miles
Clouds Overcast 400 ft
Dew Point 60 °F
Humidity 99%
Rainfall 0.00 in
Snow Depth Not available.
UV 0 out of 12
Pollen 9.40 out of 12
Air Quality Not available.
Flu Activity Not available.
SPECI KSPW 300930Z AUTO 20007KT 3SM BR OVC004 17/15 A3003 RMK AO2 T01670150 $

10-Day Weather Forecast

×

Almanac

Astronomy

Aug. 30, 2015 Rise Set
Actual Time
Civil Twilight
Nautical Twilight
Astronomical Twilight
Moon
Length of Visible Light
Length of Day
Tomorrow will be .
, % of the Moon is Illuminated

Today's Extremes

State Highs State Lows

Community

WunderPhotos

Upload Photos

1,850,919 photos uploaded!

WunderBlogs® & News

Nearby

Air Quality

  Air Quality AQ Index Pollutant
Not available.

Snow Depth

Station Depth Elevation

Earthquake Activity

City Distance Mag. Time & Date
Minimum magnitude displayed is 2.5.

Coastal Water Temperatures

Place Temperature

Stations

Nearby Weather Stations

Station Location Temp. Windchill Dew Point Humidity Wind Precip. Elev Updated Type